Aqaba Port, Jordan

9:50 AM EEST on July 30, 2014 (GMT +0300)
TalaBay Marina (IAQABAAQ3) Elev 36 ft | 29.41 °N, 34.98 °E | Change Station

Current weather conditions updated 4 minutes ago

Clear
Clear
91.4 °F
Feels Like 90 °F
N
7.0
Wind Variable Wind from North

Today is forecast to be Warmer than yesterday.

Today
High -- | Low -- °F
--% Chance of Precip.
Yesterday
High -- | Low -- °F
Precip. -- in
5:58 AM 7:34 PM
Waxing Crescent, 10% visible
Pressure 29.77 in
Visibility -9999.0 miles
Clouds
Heat Index 90 °F
Dew Point 58 °F
Humidity 32%
Rainfall 0.00 in
Snow Depth Not available.
UV 2.0 out of 12
Pollen Not available.
Air Quality Not available.
Flu Activity Not available.
METAR OJAQ 300600Z 35006KT CAVOK 30/14 Q1008 NOSIG

More Conditions Fewer Conditions

Pressure 29.77 in
Visibility -9999.0 miles
Clouds
Heat Index 90 °F
Dew Point 58 °F
Humidity 32%
Rainfall 0.00 in
Snow Depth Not available.
UV 2.0 out of 12
Pollen Not available.
Air Quality Not available.
Flu Activity Not available.
METAR OJAQ 300600Z 35006KT CAVOK 30/14 Q1008 NOSIG

More Conditions Fewer Conditions

10-Day Weather Forecast

Almanac

Astronomy

Jul. 30, 2014 Rise Set
Actual Time 5:58 AM EEST 7:34 PM EEST
Civil Twilight 5:32 AM EEST 7:59 PM EEST
Nautical Twilight 5:01 AM EEST 8:30 PM EEST
Astronomical Twilight 4:29 AM EEST 9:03 PM EEST
Moon 8:53 AM EEST 9:26 PM EEST
Length of Visible Light 14h 27m
Length of Day
13h 35m
Tomorrow will be 1m 16s shorter.
Waxing Crescent, 10% of the Moon is Illuminated
Today
Waxing Crescent
Aug 3
First Quarter
Aug 10
Full
Aug 17
Last Quarter
Aug 25
New

Yesterday's Extremes

Country Highs Country Lows

Community

WunderPhotos

Upload Photos

1,739,022 photos uploaded!

WunderBlogs® & News

By Dr. Jeff Masters
Director of Meteorology, Weather Underground
By Kari Strenfel
Meteorologist, Weather Underground
By Christopher C. Burt
Weather Historian, Weather Underground
July 29, 2014
July 29, 2014
July 29, 2014

Nearby

Snow Depth

Not available.

Earthquake Activity

City Distance Mag. Time & Date
No recent earthquake activity has been reported nearby.
Minimum magnitude displayed is 2.5.

Coastal Water Temperatures

Place Temperature
No Stations Reporting

Nearby Weather Stations

Station Location Temp. Heat Index Dew Point Humidity Wind Precip. Elev Updated Type
TalaBay Marina, Aqaba 91.4 °F 90 °F 58 °F 32% North  at  7.0 mph - / hr 36 ft 9:45 AM IDT Normal

Show More Stations Show Fewer Stations